Time,TemperatureF,DewpointF,PressureIn,WindDirection,WindDirectionDegrees,WindSpeedMPH,WindSpeedGustMPH,Humidity,HourlyPrecipIn,Conditions,Clouds,dailyrainin,SoftwareType,DateUTC
2013-05-27 00:00:00,40.3,36.8,30.25,ESE,104,2.0,2.0,87,0.00,,CLR,0.00,VWS V14.01,2013-05-27 04:00:00,
2013-05-27 00:01:00,40.2,36.9,30.25,ESE,104,1.0,2.0,88,0.00,,CLR,0.00,VWS V14.01,2013-05-27 04:01:00,
2013-05-27 00:06:00,40.3,37.3,30.25,ESE,104,2.0,2.0,89,0.00,,CLR,0.00,VWS V14.01,2013-05-27 04:06:00,
2013-05-27 00:11:00,40.1,37.4,30.25,ESE,104,1.0,2.0,90,0.00,,CLR,0.00,VWS V14.01,2013-05-27 04:11:00,
2013-05-27 00:16:00,40.3,37.3,30.25,ESE,111,1.0,1.0,89,0.00,,CLR,0.00,VWS V14.01,2013-05-27 04:16:00,
2013-05-27 00:21:00,40.4,37.1,30.25,ESE,111,0.0,1.0,88,0.00,,CLR,0.00,VWS V14.01,2013-05-27 04:21:00,
2013-05-27 00:27:00,39.9,36.6,30.25,ESE,111,1.0,1.0,88,0.00,,CLR,0.00,VWS V14.01,2013-05-27 04:27:00,
2013-05-27 00:32:00,39.9,36.9,30.25,ESE,111,1.0,1.0,89,0.00,,CLR,0.00,VWS V14.01,2013-05-27 04:32:00,
2013-05-27 00:37:00,39.9,36.6,30.25,ESE,111,0.0,0.0,88,0.00,,CLR,0.00,VWS V14.01,2013-05-27 04:37:00,
2013-05-27 00:42:00,39.2,36.0,30.25,ESE,111,0.0,0.0,88,0.00,,CLR,0.00,VWS V14.01,2013-05-27 04:42:00,
2013-05-27 00:47:00,38.7,35.5,30.25,ESE,111,0.0,1.0,88,0.00,,CLR,0.00,VWS V14.01,2013-05-27 04:47:00,
2013-05-27 00:52:00,39.2,36.2,30.25,ESE,111,1.0,2.0,89,0.00,,CLR,0.00,VWS V14.01,2013-05-27 04:52:00,
2013-05-27 00:57:00,38.7,35.7,30.24,SE,132,1.0,2.0,89,0.00,,CLR,0.00,VWS V14.01,2013-05-27 04:57:00,
2013-05-27 01:02:00,38.5,35.8,30.24,SE,132,0.0,1.0,90,0.00,,CLR,0.00,VWS V14.01,2013-05-27 05:02:00,
2013-05-27 01:07:00,38.9,36.5,30.24,SSE,150,0.0,1.0,91,0.00,,CLR,0.00,VWS V14.01,2013-05-27 05:07:00,
2013-05-27 01:12:00,38.5,35.5,30.24,SSE,158,2.0,2.0,89,0.00,,CLR,0.00,VWS V14.01,2013-05-27 05:12:00,
2013-05-27 01:17:00,38.0,35.6,30.23,SE,138,1.0,1.0,91,0.00,,CLR,0.00,VWS V14.01,2013-05-27 05:17:00,
2013-05-27 01:22:00,38.2,35.8,30.23,SE,134,1.0,1.0,91,0.00,,CLR,0.00,VWS V14.01,2013-05-27 05:22:00,
2013-05-27 01:27:00,38.1,35.7,30.23,SE,134,1.0,1.0,91,0.00,,CLR,0.00,VWS V14.01,2013-05-27 05:27:00,
2013-05-27 01:32:00,38.7,36.3,30.24,South,191,1.0,2.0,91,0.00,,CLR,0.00,VWS V14.01,2013-05-27 05:32:00,
2013-05-27 01:37:00,38.2,35.2,30.24,SSE,155,1.0,2.0,89,0.00,,CLR,0.00,VWS V14.01,2013-05-27 05:37:00,
2013-05-27 01:42:00,37.8,35.7,30.24,SE,132,1.0,2.0,92,0.00,,CLR,0.00,VWS V14.01,2013-05-27 05:42:00,
2013-05-27 01:47:00,38.5,36.1,30.24,SE,134,1.0,2.0,91,0.00,,CLR,0.00,VWS V14.01,2013-05-27 05:47:00,
2013-05-27 01:52:00,38.3,35.6,30.24,SE,134,0.0,1.0,90,0.00,,CLR,0.00,VWS V14.01,2013-05-27 05:52:00,
2013-05-27 01:57:00,37.7,35.0,30.24,SE,146,0.0,1.0,90,0.00,,CLR,0.00,VWS V14.01,2013-05-27 05:57:00,
2013-05-27 02:02:00,37.6,35.2,30.24,SSE,155,2.0,2.0,91,0.00,,CLR,0.00,VWS V14.01,2013-05-27 06:02:00,
2013-05-27 02:08:00,37.0,34.3,30.24,SSE,159,1.0,1.0,90,0.00,,CLR,0.00,VWS V14.01,2013-05-27 06:08:00,
2013-05-27 02:13:00,37.2,34.8,30.24,SSE,150,2.0,2.0,91,0.00,,CLR,0.00,VWS V14.01,2013-05-27 06:13:00,
2013-05-27 02:18:00,37.5,35.4,30.24,SE,124,0.0,1.0,92,0.00,,CLR,0.00,VWS V14.01,2013-05-27 06:18:00,
2013-05-27 02:23:00,36.8,34.4,30.24,SE,124,0.0,0.0,91,0.00,,CLR,0.00,VWS V14.01,2013-05-27 06:23:00,
2013-05-27 02:28:00,36.4,34.3,30.24,SE,124,1.0,1.0,92,0.00,,CLR,0.00,VWS V14.01,2013-05-27 06:28:00,
2013-05-27 02:33:00,36.9,35.1,30.25,SE,124,2.0,2.0,93,0.00,,CLR,0.00,VWS V14.01,2013-05-27 06:33:00,
2013-05-27 02:38:00,36.5,34.4,30.25,ESE,123,1.0,2.0,92,0.00,,CLR,0.00,VWS V14.01,2013-05-27 06:38:00,
2013-05-27 02:43:00,36.5,34.4,30.24,ESE,123,0.0,1.0,92,0.00,,CLR,0.00,VWS V14.01,2013-05-27 06:43:00,
2013-05-27 02:48:00,36.1,34.0,30.24,ESE,123,1.0,1.0,92,0.00,,CLR,0.00,VWS V14.01,2013-05-27 06:48:00,
2013-05-27 02:53:00,36.1,34.0,30.24,ESE,123,2.0,3.0,92,0.00,,CLR,0.00,VWS V14.01,2013-05-27 06:53:00,
2013-05-27 02:58:00,36.4,34.6,30.24,ESE,123,2.0,2.0,93,0.00,,CLR,0.00,VWS V14.01,2013-05-27 06:58:00,
2013-05-27 03:03:00,36.7,34.9,30.24,ESE,120,2.0,3.0,93,0.00,,CLR,0.00,VWS V14.01,2013-05-27 07:03:00,
2013-05-27 03:08:00,36.6,34.5,30.23,ESE,120,1.0,1.0,92,0.00,,CLR,0.00,VWS V14.01,2013-05-27 07:08:00,
2013-05-27 03:13:00,36.7,34.6,30.23,ESE,118,1.0,1.0,92,0.00,,CLR,0.00,VWS V14.01,2013-05-27 07:13:00,
2013-05-27 03:18:00,36.8,34.4,30.22,ESE,118,1.0,2.0,91,0.00,,CLR,0.00,VWS V14.01,2013-05-27 07:18:00,
2013-05-27 03:23:00,36.6,34.2,30.22,SE,128,1.0,1.0,91,0.00,,CLR,0.00,VWS V14.01,2013-05-27 07:23:00,
2013-05-27 03:28:00,36.0,33.6,30.22,SE,128,0.0,0.0,91,0.00,,CLR,0.00,VWS V14.01,2013-05-27 07:28:00,
2013-05-27 03:33:00,35.7,33.6,30.22,SE,128,1.0,1.0,92,0.00,,CLR,0.00,VWS V14.01,2013-05-27 07:33:00,
2013-05-27 03:38:00,35.3,32.9,30.21,SSE,161,1.0,1.0,91,0.00,,CLR,0.00,VWS V14.01,2013-05-27 07:38:00,
2013-05-27 03:43:00,36.1,34.3,30.21,SSE,147,2.0,2.0,93,0.00,,CLR,0.00,VWS V14.01,2013-05-27 07:43:00,
2013-05-27 03:48:00,36.3,34.2,30.21,SE,134,1.0,2.0,92,0.00,,CLR,0.00,VWS V14.01,2013-05-27 07:48:00,
2013-05-27 03:53:00,36.4,34.6,30.21,SE,134,1.0,1.0,93,0.00,,CLR,0.00,VWS V14.01,2013-05-27 07:53:00,
2013-05-27 03:58:00,36.3,34.2,30.21,SE,134,1.0,1.0,92,0.00,,CLR,0.00,VWS V14.01,2013-05-27 07:58:00,
2013-05-27 04:04:00,35.9,33.8,30.21,SE,134,0.0,1.0,92,0.00,,CLR,0.00,VWS V14.01,2013-05-27 08:04:00,
2013-05-27 04:09:00,35.3,33.2,30.21,SE,134,2.0,2.0,92,0.00,,CLR,0.00,VWS V14.01,2013-05-27 08:09:00,
2013-05-27 04:14:00,35.8,34.0,30.21,SE,132,1.0,2.0,93,0.00,,CLR,0.00,VWS V14.01,2013-05-27 08:14:00,
2013-05-27 04:19:00,36.0,33.9,30.21,ESE,123,0.0,0.0,92,0.00,,CLR,0.00,VWS V14.01,2013-05-27 08:19:00,
2013-05-27 04:24:00,35.8,33.7,30.22,ESE,123,0.0,0.0,92,0.00,,CLR,0.00,VWS V14.01,2013-05-27 08:24:00,
2013-05-27 04:29:00,34.9,32.5,30.22,ESE,123,2.0,2.0,91,0.00,,CLR,0.00,VWS V14.01,2013-05-27 08:29:00,
2013-05-27 04:34:00,34.6,32.8,30.22,SE,129,1.0,2.0,93,0.00,,CLR,0.00,VWS V14.01,2013-05-27 08:34:00,
2013-05-27 04:39:00,35.2,33.7,30.21,SE,131,2.0,2.0,94,0.00,,CLR,0.00,VWS V14.01,2013-05-27 08:39:00,
2013-05-27 04:44:00,35.1,33.0,30.21,SE,131,0.0,1.0,92,0.00,,CLR,0.00,VWS V14.01,2013-05-27 08:44:00,
2013-05-27 04:49:00,34.9,33.1,30.21,SE,131,1.0,1.0,93,0.00,,CLR,0.00,VWS V14.01,2013-05-27 08:49:00,
2013-05-27 04:54:00,35.1,33.0,30.21,SE,138,0.0,1.0,92,0.00,,CLR,0.00,VWS V14.01,2013-05-27 08:54:00,
2013-05-27 04:59:00,34.7,32.9,30.21,SW,215,1.0,2.0,93,0.00,,CLR,0.00,VWS V14.01,2013-05-27 08:59:00,
2013-05-27 05:04:00,35.3,33.5,30.22,SSW,200,0.0,1.0,93,0.00,,CLR,0.00,VWS V14.01,2013-05-27 09:04:00,
2013-05-27 05:09:00,34.5,32.4,30.22,SE,124,2.0,3.0,92,0.00,,CLR,0.00,VWS V14.01,2013-05-27 09:09:00,
2013-05-27 05:14:00,34.3,32.5,30.22,ESE,123,1.0,2.0,93,0.00,,CLR,0.00,VWS V14.01,2013-05-27 09:14:00,
2013-05-27 05:19:00,35.1,33.5,30.22,ESE,123,1.0,2.0,94,0.00,,CLR,0.00,VWS V14.01,2013-05-27 09:19:00,
2013-05-27 05:24:00,34.8,33.0,30.22,ESE,123,0.0,0.0,93,0.00,,CLR,0.00,VWS V14.01,2013-05-27 09:24:00,
2013-05-27 05:29:00,33.8,31.7,30.23,ESE,123,1.0,1.0,92,0.00,,CLR,0.00,VWS V14.01,2013-05-27 09:29:00,
2013-05-27 05:34:00,33.6,32.1,30.22,ESE,123,1.0,1.0,94,0.00,,CLR,0.00,VWS V14.01,2013-05-27 09:34:00,
2013-05-27 05:39:00,33.6,32.1,30.22,ESE,123,1.0,2.0,94,0.00,,CLR,0.00,VWS V14.01,2013-05-27 09:39:00,
2013-05-27 05:44:00,33.8,32.3,30.22,ESE,123,2.0,3.0,94,0.00,,CLR,0.00,VWS V14.01,2013-05-27 09:44:00,
2013-05-27 05:49:00,34.1,32.6,30.22,SE,128,2.0,2.0,94,0.00,,CLR,0.00,VWS V14.01,2013-05-27 09:49:00,
2013-05-27 05:54:00,34.5,33.0,30.22,SE,132,1.0,1.0,94,0.00,,CLR,0.00,VWS V14.01,2013-05-27 09:54:00,
2013-05-27 06:00:00,34.4,32.9,30.22,SE,132,1.0,1.0,94,0.00,,CLR,0.00,VWS V14.01,2013-05-27 10:00:00,
2013-05-27 06:05:00,34.5,33.0,30.21,SSW,201,2.0,2.0,94,0.00,,CLR,0.00,VWS V14.01,2013-05-27 10:05:00,
2013-05-27 06:10:00,34.8,33.2,30.21,SE,138,3.0,3.0,94,0.00,,CLR,0.00,VWS V14.01,2013-05-27 10:10:00,
2013-05-27 06:15:00,35.2,33.7,30.22,SE,137,0.0,0.0,94,0.00,,CLR,0.00,VWS V14.01,2013-05-27 10:15:00,
2013-05-27 06:20:00,35.1,33.3,30.22,SSE,156,0.0,0.0,93,0.00,,CLR,0.00,VWS V14.01,2013-05-27 10:20:00,
2013-05-27 06:25:00,35.3,33.5,30.22,South,169,3.0,3.0,93,0.00,,CLR,0.00,VWS V14.01,2013-05-27 10:25:00,
2013-05-27 06:30:00,35.7,33.9,30.22,SE,146,1.0,2.0,93,0.00,,CLR,0.00,VWS V14.01,2013-05-27 10:30:00,
2013-05-27 06:35:00,36.1,34.3,30.22,ESE,121,3.0,3.0,93,0.00,,CLR,0.00,VWS V14.01,2013-05-27 10:35:00,
2013-05-27 06:40:00,37.0,35.2,30.22,ESE,117,2.0,2.0,93,0.00,,CLR,0.00,VWS V14.01,2013-05-27 10:40:00,
2013-05-27 06:45:00,37.8,35.7,30.22,East,100,2.0,2.0,92,0.00,,CLR,0.00,VWS V14.01,2013-05-27 10:45:00,
2013-05-27 06:50:00,38.7,36.6,30.22,ESE,108,0.0,1.0,92,0.00,,CLR,0.00,VWS V14.01,2013-05-27 10:50:00,
2013-05-27 06:55:00,39.0,36.9,30.23,SW,219,2.0,3.0,92,0.00,,CLR,0.00,VWS V14.01,2013-05-27 10:55:00,
2013-05-27 07:00:00,39.7,37.3,30.23,WSW,248,0.0,1.0,91,0.00,,CLR,0.00,VWS V14.01,2013-05-27 11:00:00,
2013-05-27 07:05:00,40.4,38.0,30.23,SE,139,2.0,3.0,91,0.00,,CLR,0.00,VWS V14.01,2013-05-27 11:05:00,
2013-05-27 07:10:00,41.2,38.8,30.23,West,276,1.0,1.0,91,0.00,,CLR,0.00,VWS V14.01,2013-05-27 11:10:00,
2013-05-27 07:15:00,41.9,39.5,30.23,WSW,252,1.0,1.0,91,0.00,,CLR,0.00,VWS V14.01,2013-05-27 11:15:00,
2013-05-27 07:20:00,42.4,40.0,30.23,WSW,238,0.0,1.0,91,0.00,,CLR,0.00,VWS V14.01,2013-05-27 11:20:00,
2013-05-27 07:25:00,42.8,40.1,30.23,SW,229,0.0,1.0,90,0.00,,CLR,0.00,VWS V14.01,2013-05-27 11:25:00,
2013-05-27 07:30:00,43.2,40.5,30.23,SW,229,1.0,1.0,90,0.00,,CLR,0.00,VWS V14.01,2013-05-27 11:30:00,
2013-05-27 07:35:00,43.8,41.3,30.22,SW,229,0.0,1.0,91,0.00,,CLR,0.00,VWS V14.01,2013-05-27 11:35:00,
2013-05-27 07:40:00,44.2,41.7,30.22,SSW,192,1.0,1.0,91,0.00,,CLR,0.00,VWS V14.01,2013-05-27 11:40:00,
2013-05-27 07:45:00,44.6,41.8,30.22,SSW,213,1.0,1.0,90,0.00,,CLR,0.00,VWS V14.01,2013-05-27 11:45:00,
2013-05-27 07:50:00,45.1,42.1,30.22,SW,221,1.0,2.0,89,0.00,,CLR,0.00,VWS V14.01,2013-05-27 11:50:00,
2013-05-27 07:55:00,45.4,42.3,30.22,SW,227,1.0,2.0,89,0.00,,CLR,0.00,VWS V14.01,2013-05-27 11:55:00,
2013-05-27 08:00:00,45.8,42.8,30.21,SW,226,1.0,1.0,89,0.00,,CLR,0.00,VWS V14.01,2013-05-27 12:00:00,
2013-05-27 08:05:00,46.3,43.0,30.21,SW,219,0.0,1.0,88,0.00,,CLR,0.00,VWS V14.01,2013-05-27 12:05:00,
2013-05-27 08:10:00,46.9,43.5,30.21,SW,220,1.0,2.0,88,0.00,,CLR,0.00,VWS V14.01,2013-05-27 12:10:00,
2013-05-27 08:15:00,47.8,44.4,30.20,South,189,1.0,1.0,88,0.00,,CLR,0.00,VWS V14.01,2013-05-27 12:15:00,
2013-05-27 08:20:00,49.2,44.3,30.20,SE,127,1.0,1.0,83,0.00,,CLR,0.00,VWS V14.01,2013-05-27 12:20:00,
2013-05-27 08:25:00,49.4,45.1,30.20,SSE,165,1.0,1.0,85,0.00,,CLR,0.00,VWS V14.01,2013-05-27 12:25:00,
2013-05-27 08:30:00,50.1,44.8,30.21,SSW,197,0.0,1.0,82,0.00,,CLR,0.00,VWS V14.01,2013-05-27 12:30:00,
2013-05-27 08:35:00,50.6,45.3,30.21,SSW,199,1.0,1.0,82,0.00,,CLR,0.00,VWS V14.01,2013-05-27 12:35:00,
2013-05-27 08:40:00,51.8,45.5,30.21,ESE,108,3.0,3.0,79,0.00,,CLR,0.00,VWS V14.01,2013-05-27 12:40:00,
2013-05-27 08:45:00,52.8,44.4,30.21,SE,129,3.0,3.0,73,0.00,,CLR,0.00,VWS V14.01,2013-05-27 12:45:00,
2013-05-27 08:50:00,53.3,44.5,30.21,ESE,105,3.0,3.0,72,0.00,,CLR,0.00,VWS V14.01,2013-05-27 12:50:00,
2013-05-27 08:55:00,54.2,44.6,30.21,SSE,150,3.0,4.0,70,0.00,,CLR,0.00,VWS V14.01,2013-05-27 12:55:00,
2013-05-27 09:00:00,54.8,44.8,30.21,SE,136,2.0,3.0,69,0.00,,CLR,0.00,VWS V14.01,2013-05-27 13:00:00,
2013-05-27 09:05:00,55.0,44.3,30.21,SE,131,3.0,3.0,67,0.00,,CLR,0.00,VWS V14.01,2013-05-27 13:05:00,
2013-05-27 09:10:00,55.5,45.1,30.21,SE,140,5.0,5.0,68,0.00,,CLR,0.00,VWS V14.01,2013-05-27 13:10:00,
2013-05-27 09:15:00,55.7,44.9,30.21,ESE,121,4.0,4.0,67,0.00,,CLR,0.00,VWS V14.01,2013-05-27 13:15:00,
2013-05-27 09:20:00,55.9,44.3,30.21,ESE,117,3.0,3.0,65,0.00,,CLR,0.00,VWS V14.01,2013-05-27 13:20:00,
2013-05-27 09:25:00,56.4,44.8,30.21,East,96,4.0,4.0,65,0.00,,CLR,0.00,VWS V14.01,2013-05-27 13:25:00,
2013-05-27 09:30:00,56.7,44.3,30.21,ESE,123,3.0,3.0,63,0.00,,CLR,0.00,VWS V14.01,2013-05-27 13:30:00,
2013-05-27 09:35:00,57.1,44.6,30.21,ESE,111,0.0,0.0,63,0.00,,CLR,0.00,VWS V14.01,2013-05-27 13:35:00,
2013-05-27 09:40:00,57.5,44.2,30.21,SE,138,3.0,3.0,61,0.00,,CLR,0.00,VWS V14.01,2013-05-27 13:40:00,
2013-05-27 09:45:00,57.7,43.5,30.21,SE,140,2.0,2.0,59,0.00,,CLR,0.00,VWS V14.01,2013-05-27 13:45:00,
2013-05-27 09:50:00,57.8,44.0,30.22,SE,132,3.0,3.0,60,0.00,,CLR,0.00,VWS V14.01,2013-05-27 13:50:00,
2013-05-27 09:55:00,58.2,44.4,30.22,SW,227,0.0,1.0,60,0.00,,CLR,0.00,VWS V14.01,2013-05-27 13:55:00,
2013-05-27 10:00:00,58.7,44.0,30.22,SE,129,3.0,4.0,58,0.00,,CLR,0.00,VWS V14.01,2013-05-27 14:00:00,
2013-05-27 10:05:00,59.3,44.5,30.22,ESE,119,3.0,4.0,58,0.00,,CLR,0.00,VWS V14.01,2013-05-27 14:05:00,
2013-05-27 10:10:00,59.7,43.5,30.22,SE,134,4.0,4.0,55,0.00,,CLR,0.00,VWS V14.01,2013-05-27 14:10:00,
2013-05-27 10:16:00,60.3,43.6,30.22,SSE,148,3.0,7.0,54,0.00,,CLR,0.00,VWS V14.01,2013-05-27 14:16:00,
2013-05-27 10:21:00,60.9,42.7,30.22,East,93,7.0,9.0,51,0.00,,CLR,0.00,VWS V14.01,2013-05-27 14:21:00,
2013-05-27 10:26:00,61.2,43.0,30.21,SE,134,7.0,7.0,51,0.00,,CLR,0.00,VWS V14.01,2013-05-27 14:26:00,
2013-05-27 10:31:00,61.1,42.8,30.21,ESE,117,6.0,6.0,51,0.00,,CLR,0.00,VWS V14.01,2013-05-27 14:31:00,
2013-05-27 10:36:00,61.7,42.4,30.21,ESE,117,9.0,12.0,49,0.00,,CLR,0.00,VWS V14.01,2013-05-27 14:36:00,
2013-05-27 10:41:00,61.8,43.0,30.21,SE,139,8.0,8.0,50,0.00,,CLR,0.00,VWS V14.01,2013-05-27 14:41:00,
2013-05-27 10:46:00,62.3,43.4,30.20,ESE,115,9.0,11.0,50,0.00,,CLR,0.00,VWS V14.01,2013-05-27 14:46:00,
2013-05-27 10:51:00,62.3,41.8,30.20,SE,128,3.0,3.0,47,0.00,,CLR,0.00,VWS V14.01,2013-05-27 14:51:00,
2013-05-27 10:56:00,62.3,42.4,30.20,SE,125,3.0,6.0,48,0.00,,CLR,0.00,VWS V14.01,2013-05-27 14:56:00,
2013-05-27 11:01:00,63.0,42.5,30.20,ESE,119,3.0,5.0,47,0.00,,CLR,0.00,VWS V14.01,2013-05-27 15:01:00,
2013-05-27 11:06:00,63.3,41.6,30.19,SE,126,3.0,3.0,45,0.00,,CLR,0.00,VWS V14.01,2013-05-27 15:06:00,
2013-05-27 11:11:00,63.5,41.8,30.19,SE,146,4.0,10.0,45,0.00,,CLR,0.00,VWS V14.01,2013-05-27 15:11:00,
2013-05-27 11:16:00,64.0,40.5,30.18,ESE,119,6.0,7.0,42,0.00,,CLR,0.00,VWS V14.01,2013-05-27 15:16:00,
2013-05-27 11:21:00,64.1,39.3,30.18,ESE,123,7.0,8.0,40,0.00,,CLR,0.00,VWS V14.01,2013-05-27 15:21:00,
2013-05-27 11:26:00,64.2,40.0,30.18,East,100,12.0,12.0,41,0.00,,CLR,0.00,VWS V14.01,2013-05-27 15:26:00,
2013-05-27 11:31:00,64.3,37.5,30.18,ESE,118,12.0,12.0,37,0.00,,CLR,0.00,VWS V14.01,2013-05-27 15:31:00,
2013-05-27 11:36:00,64.9,40.0,30.17,ESE,103,7.0,9.0,40,0.00,,CLR,0.00,VWS V14.01,2013-05-27 15:36:00,
2013-05-27 11:41:00,65.0,38.8,30.17,SSE,151,8.0,9.0,38,0.00,,CLR,0.00,VWS V14.01,2013-05-27 15:41:00,
2013-05-27 11:46:00,64.8,35.8,30.17,ESE,105,10.0,10.0,34,0.00,,CLR,0.00,VWS V14.01,2013-05-27 15:46:00,
2013-05-27 11:51:00,65.3,36.2,30.16,SE,139,4.0,8.0,34,0.00,,CLR,0.00,VWS V14.01,2013-05-27 15:51:00,
2013-05-27 11:56:00,65.0,33.7,30.16,SE,132,9.0,11.0,31,0.00,,CLR,0.00,VWS V14.01,2013-05-27 15:56:00,
2013-05-27 12:01:00,65.4,34.0,30.16,SE,130,13.0,13.0,31,0.00,,CLR,0.00,VWS V14.01,2013-05-27 16:01:00,
2013-05-27 12:06:00,65.9,36.8,30.16,ESE,107,4.0,6.0,34,0.00,,CLR,0.00,VWS V14.01,2013-05-27 16:06:00,
2013-05-27 12:11:00,65.6,36.5,30.16,SE,138,4.0,6.0,34,0.00,,CLR,0.00,VWS V14.01,2013-05-27 16:11:00,
2013-05-27 12:16:00,66.1,37.7,30.15,ESE,111,14.0,14.0,35,0.00,,CLR,0.00,VWS V14.01,2013-05-27 16:16:00,
2013-05-27 12:21:00,66.6,39.5,30.15,SSE,167,6.0,8.0,37,0.00,,CLR,0.00,VWS V14.01,2013-05-27 16:21:00,
2013-05-27 12:27:00,66.4,36.5,30.15,SW,234,6.0,9.0,33,0.00,,CLR,0.00,VWS V14.01,2013-05-27 16:27:00,
2013-05-27 12:32:00,66.3,36.4,30.15,ESE,118,10.0,10.0,33,0.00,,CLR,0.00,VWS V14.01,2013-05-27 16:32:00,
2013-05-27 12:37:00,66.5,38.0,30.15,SSE,149,10.0,11.0,35,0.00,,CLR,0.00,VWS V14.01,2013-05-27 16:37:00,
2013-05-27 12:42:00,67.0,36.2,30.15,ESE,116,9.0,9.0,32,0.00,,CLR,0.00,VWS V14.01,2013-05-27 16:42:00,
2013-05-27 12:47:00,66.4,37.2,30.14,SE,131,9.0,12.0,34,0.00,,CLR,0.00,VWS V14.01,2013-05-27 16:47:00,
2013-05-27 12:52:00,66.7,36.7,30.14,ESE,104,9.0,14.0,33,0.00,,CLR,0.00,VWS V14.01,2013-05-27 16:52:00,
2013-05-27 12:57:00,66.9,36.1,30.14,ENE,67,9.0,11.0,32,0.00,,CLR,0.00,VWS V14.01,2013-05-27 16:57:00,
2013-05-27 13:02:00,66.3,34.8,30.14,SE,124,10.0,13.0,31,0.00,,CLR,0.00,VWS V14.01,2013-05-27 17:02:00,
2013-05-27 13:07:00,66.6,37.4,30.13,SE,142,14.0,14.0,34,0.00,,CLR,0.00,VWS V14.01,2013-05-27 17:07:00,
2013-05-27 13:12:00,67.0,35.4,30.13,East,96,10.0,11.0,31,0.00,,CLR,0.00,VWS V14.01,2013-05-27 17:12:00,
2013-05-27 13:17:00,67.4,37.3,30.13,East,100,12.0,13.0,33,0.00,,CLR,0.00,VWS V14.01,2013-05-27 17:17:00,
2013-05-27 13:22:00,67.3,35.7,30.14,ESE,108,11.0,13.0,31,0.00,,CLR,0.00,VWS V14.01,2013-05-27 17:22:00,
2013-05-27 13:27:00,68.0,37.8,30.14,SE,128,5.0,9.0,33,0.00,,CLR,0.00,VWS V14.01,2013-05-27 17:27:00,
2013-05-27 13:32:00,68.1,37.2,30.14,East,83,3.0,11.0,32,0.00,,CLR,0.00,VWS V14.01,2013-05-27 17:32:00,
2013-05-27 13:37:00,67.8,36.1,30.14,East,99,7.0,8.0,31,0.00,,CLR,0.00,VWS V14.01,2013-05-27 17:37:00,
2013-05-27 13:42:00,67.4,34.1,30.13,SE,136,8.0,8.0,29,0.00,,CLR,0.00,VWS V14.01,2013-05-27 17:42:00,
2013-05-27 13:47:00,68.0,33.7,30.13,SE,134,9.0,13.0,28,0.00,,CLR,0.00,VWS V14.01,2013-05-27 17:47:00,
2013-05-27 13:52:00,67.9,35.3,30.13,SE,137,9.0,10.0,30,0.00,,CLR,0.00,VWS V14.01,2013-05-27 17:52:00,
2013-05-27 13:57:00,68.1,33.8,30.13,ESE,103,7.0,11.0,28,0.00,,CLR,0.00,VWS V14.01,2013-05-27 17:57:00,
2013-05-27 14:02:00,68.3,34.0,30.13,SE,134,10.0,12.0,28,0.00,,CLR,0.00,VWS V14.01,2013-05-27 18:02:00,
2013-05-27 14:07:00,68.1,35.5,30.13,SE,124,3.0,8.0,30,0.00,,CLR,0.00,VWS V14.01,2013-05-27 18:07:00,
2013-05-27 14:12:00,68.5,35.9,30.13,SE,134,5.0,7.0,30,0.00,,CLR,0.00,VWS V14.01,2013-05-27 18:12:00,
2013-05-27 14:17:00,68.0,33.7,30.13,SE,130,3.0,4.0,28,0.00,,CLR,0.00,VWS V14.01,2013-05-27 18:17:00,
2013-05-27 14:22:00,67.8,33.5,30.13,East,88,7.0,9.0,28,0.00,,CLR,0.00,VWS V14.01,2013-05-27 18:22:00,
2013-05-27 14:27:00,67.9,34.5,30.12,NE,42,3.0,8.0,29,0.00,,CLR,0.00,VWS V14.01,2013-05-27 18:27:00,
2013-05-27 14:32:00,68.5,34.1,30.12,ESE,123,7.0,7.0,28,0.00,,CLR,0.00,VWS V14.01,2013-05-27 18:32:00,
2013-05-27 14:37:00,68.5,34.1,30.12,ESE,121,7.0,12.0,28,0.00,,CLR,0.00,VWS V14.01,2013-05-27 18:37:00,
2013-05-27 14:42:00,68.6,36.0,30.12,ESE,112,11.0,11.0,30,0.00,,CLR,0.00,VWS V14.01,2013-05-27 18:42:00,
2013-05-27 14:48:00,69.1,34.7,30.12,SE,142,7.0,7.0,28,0.00,,CLR,0.00,VWS V14.01,2013-05-27 18:48:00,
2013-05-27 14:53:00,69.8,34.3,30.12,SE,138,7.0,7.0,27,0.00,,CLR,0.00,VWS V14.01,2013-05-27 18:53:00,
2013-05-27 14:58:00,70.2,35.6,30.11,SE,139,8.0,15.0,28,0.00,,CLR,0.00,VWS V14.01,2013-05-27 18:58:00,
2013-05-27 15:03:00,69.5,35.0,30.11,SSE,160,6.0,11.0,28,0.00,,CLR,0.00,VWS V14.01,2013-05-27 19:03:00,
2013-05-27 15:08:00,69.4,34.9,30.11,ESE,123,8.0,12.0,28,0.00,,CLR,0.00,VWS V14.01,2013-05-27 19:08:00,
2013-05-27 15:13:00,69.2,31.9,30.11,SE,126,8.0,8.0,25,0.00,,CLR,0.00,VWS V14.01,2013-05-27 19:13:00,
2013-05-27 15:18:00,69.7,34.3,30.11,ESE,118,12.0,13.0,27,0.00,,CLR,0.00,VWS V14.01,2013-05-27 19:18:00,
2013-05-27 15:23:00,69.4,32.1,30.10,SE,140,9.0,9.0,25,0.00,,CLR,0.00,VWS V14.01,2013-05-27 19:23:00,
2013-05-27 15:28:00,69.9,34.4,30.10,ESE,122,7.0,9.0,27,0.00,,CLR,0.00,VWS V14.01,2013-05-27 19:28:00,
2013-05-27 15:33:00,70.2,35.6,30.10,SE,126,9.0,10.0,28,0.00,,CLR,0.00,VWS V14.01,2013-05-27 19:33:00,
2013-05-27 15:38:00,69.7,35.2,30.09,ESE,111,6.0,9.0,28,0.00,,CLR,0.00,VWS V14.01,2013-05-27 19:38:00,
2013-05-27 15:43:00,70.2,32.8,30.09,West,281,6.0,12.0,25,0.00,,CLR,0.00,VWS V14.01,2013-05-27 19:43:00,
2013-05-27 15:48:00,70.2,34.7,30.09,SE,127,7.0,9.0,27,0.00,,CLR,0.00,VWS V14.01,2013-05-27 19:48:00,
2013-05-27 15:53:00,69.8,33.4,30.08,SE,132,9.0,9.0,26,0.00,,CLR,0.00,VWS V14.01,2013-05-27 19:53:00,
2013-05-27 15:58:00,70.5,35.9,30.08,SE,132,9.0,10.0,28,0.00,,CLR,0.00,VWS V14.01,2013-05-27 19:58:00,
2013-05-27 16:03:00,70.1,33.7,30.07,ESE,110,12.0,12.0,26,0.00,,CLR,0.00,VWS V14.01,2013-05-27 20:03:00,
2013-05-27 16:08:00,69.9,33.5,30.07,ESE,115,3.0,7.0,26,0.00,,CLR,0.00,VWS V14.01,2013-05-27 20:08:00,
2013-05-27 16:13:00,70.4,33.9,30.07,SE,132,7.0,11.0,26,0.00,,CLR,0.00,VWS V14.01,2013-05-27 20:13:00,
2013-05-27 16:18:00,69.5,33.1,30.07,SE,132,8.0,10.0,26,0.00,,CLR,0.00,VWS V14.01,2013-05-27 20:18:00,
2013-05-27 16:23:00,69.7,35.2,30.06,ESE,121,11.0,11.0,28,0.00,,CLR,0.00,VWS V14.01,2013-05-27 20:23:00,
2013-05-27 16:28:00,69.7,34.3,30.06,East,100,10.0,10.0,27,0.00,,CLR,0.00,VWS V14.01,2013-05-27 20:28:00,
2013-05-27 16:33:00,69.3,33.0,30.06,SE,125,9.0,10.0,26,0.00,,CLR,0.00,VWS V14.01,2013-05-27 20:33:00,
2013-05-27 16:38:00,69.1,32.8,30.06,ESE,122,3.0,5.0,26,0.00,,CLR,0.00,VWS V14.01,2013-05-27 20:38:00,
2013-05-27 16:43:00,69.5,32.2,30.06,SE,126,7.0,10.0,25,0.00,,CLR,0.00,VWS V14.01,2013-05-27 20:43:00,
2013-05-27 16:48:00,69.8,36.1,30.05,WSW,240,6.0,7.0,29,0.00,,CLR,0.00,VWS V14.01,2013-05-27 20:48:00,
2013-05-27 16:53:00,70.3,34.8,30.05,ESE,123,8.0,11.0,27,0.00,,CLR,0.00,VWS V14.01,2013-05-27 20:53:00,
2013-05-27 16:58:00,70.1,35.5,30.05,SE,130,8.0,10.0,28,0.00,,CLR,0.00,VWS V14.01,2013-05-27 20:58:00,
2013-05-27 17:03:00,70.0,33.6,30.05,SE,142,5.0,10.0,26,0.00,,CLR,0.00,VWS V14.01,2013-05-27 21:03:00,
2013-05-27 17:08:00,70.2,34.7,30.05,ESE,110,8.0,9.0,27,0.00,,CLR,0.00,VWS V14.01,2013-05-27 21:08:00,
2013-05-27 17:13:00,69.7,33.3,30.04,ESE,107,10.0,10.0,26,0.00,,CLR,0.00,VWS V14.01,2013-05-27 21:13:00,
2013-05-27 17:18:00,69.5,34.1,30.04,SE,127,12.0,14.0,27,0.00,,CLR,0.00,VWS V14.01,2013-05-27 21:18:00,
2013-05-27 17:23:00,69.5,34.1,30.03,East,96,10.0,12.0,27,0.00,,CLR,0.00,VWS V14.01,2013-05-27 21:23:00,
2013-05-27 17:28:00,69.7,35.2,30.03,SE,138,11.0,12.0,28,0.00,,CLR,0.00,VWS V14.01,2013-05-27 21:28:00,
2013-05-27 17:33:00,69.5,32.2,30.03,ESE,119,11.0,12.0,25,0.00,,CLR,0.00,VWS V14.01,2013-05-27 21:33:00,
2013-05-27 17:38:00,69.3,33.0,30.02,East,98,12.0,12.0,26,0.00,,CLR,0.00,VWS V14.01,2013-05-27 21:38:00,
2013-05-27 17:43:00,69.1,33.7,30.02,SE,125,8.0,12.0,27,0.00,,CLR,0.00,VWS V14.01,2013-05-27 21:43:00,
2013-05-27 17:48:00,69.1,36.4,30.02,ESE,119,9.0,12.0,30,0.00,,CLR,0.00,VWS V14.01,2013-05-27 21:48:00,
2013-05-27 17:53:00,69.0,34.6,30.02,East,92,9.0,12.0,28,0.00,,CLR,0.00,VWS V14.01,2013-05-27 21:53:00,
2013-05-27 17:58:00,68.9,33.6,30.02,ESE,104,9.0,10.0,27,0.00,,CLR,0.00,VWS V14.01,2013-05-27 21:58:00,
2013-05-27 18:03:00,68.8,33.5,30.02,ESE,113,6.0,9.0,27,0.00,,CLR,0.00,VWS V14.01,2013-05-27 22:03:00,
2013-05-27 18:08:00,68.3,34.8,30.02,East,98,14.0,14.0,29,0.00,,CLR,0.00,VWS V14.01,2013-05-27 22:08:00,
2013-05-27 18:13:00,68.0,33.7,30.02,SE,132,7.0,9.0,28,0.00,,CLR,0.00,VWS V14.01,2013-05-27 22:13:00,
2013-05-27 18:18:00,67.9,36.2,30.02,East,84,7.0,7.0,31,0.00,,CLR,0.00,VWS V14.01,2013-05-27 22:18:00,
2013-05-27 18:23:00,67.8,36.1,30.01,ESE,115,9.0,13.0,31,0.00,,CLR,0.00,VWS V14.01,2013-05-27 22:23:00,
2013-05-27 18:28:00,67.7,33.5,30.02,ESE,123,13.0,14.0,28,0.00,,CLR,0.00,VWS V14.01,2013-05-27 22:28:00,
2013-05-27 18:33:00,67.5,34.2,30.01,East,100,6.0,10.0,29,0.00,,CLR,0.00,VWS V14.01,2013-05-27 22:33:00,
2013-05-27 18:38:00,67.3,34.0,30.02,ESE,117,7.0,10.0,29,0.00,,CLR,0.00,VWS V14.01,2013-05-27 22:38:00,
2013-05-27 18:43:00,67.0,32.8,30.01,ESE,114,10.0,11.0,28,0.00,,CLR,0.00,VWS V14.01,2013-05-27 22:43:00,
2013-05-27 18:48:00,67.0,33.7,30.01,ESE,111,12.0,12.0,29,0.00,,CLR,0.00,VWS V14.01,2013-05-27 22:48:00,
2013-05-27 18:53:00,66.8,33.5,30.01,ESE,106,14.0,14.0,29,0.00,,CLR,0.00,VWS V14.01,2013-05-27 22:53:00,
2013-05-27 18:59:00,66.7,33.5,30.01,ESE,103,10.0,10.0,29,0.00,,CLR,0.00,VWS V14.01,2013-05-27 22:59:00,
2013-05-27 19:04:00,66.7,33.5,30.01,SE,125,10.0,11.0,29,0.00,,CLR,0.00,VWS V14.01,2013-05-27 23:04:00,
2013-05-27 19:09:00,66.6,33.4,30.01,SE,134,7.0,9.0,29,0.00,,CLR,0.00,VWS V14.01,2013-05-27 23:09:00,
2013-05-27 19:14:00,66.5,34.1,30.01,ESE,123,10.0,10.0,30,0.00,,CLR,0.00,VWS V14.01,2013-05-27 23:14:00,
2013-05-27 19:19:00,66.3,34.0,30.01,ESE,112,6.0,9.0,30,0.00,,CLR,0.00,VWS V14.01,2013-05-27 23:19:00,
2013-05-27 19:24:00,66.2,33.9,30.01,ESE,122,5.0,7.0,30,0.00,,CLR,0.00,VWS V14.01,2013-05-27 23:24:00,
2013-05-27 19:29:00,66.1,33.8,30.01,ESE,117,8.0,8.0,30,0.00,,CLR,0.00,VWS V14.01,2013-05-27 23:29:00,
2013-05-27 19:34:00,65.9,33.6,30.01,ESE,104,7.0,9.0,30,0.00,,CLR,0.00,VWS V14.01,2013-05-27 23:34:00,
2013-05-27 19:39:00,65.7,33.5,30.02,ESE,123,9.0,10.0,30,0.00,,CLR,0.00,VWS V14.01,2013-05-27 23:39:00,
2013-05-27 19:44:00,65.3,34.7,30.01,ESE,114,10.0,10.0,32,0.00,,CLR,0.00,VWS V14.01,2013-05-27 23:44:00,
2013-05-27 19:49:00,65.2,34.6,30.01,East,100,8.0,8.0,32,0.00,,CLR,0.00,VWS V14.01,2013-05-27 23:49:00,
2013-05-27 19:54:00,65.0,34.5,30.01,SE,134,7.0,8.0,32,0.00,,CLR,0.00,VWS V14.01,2013-05-27 23:54:00,
2013-05-27 19:59:00,64.7,34.2,30.01,SE,140,9.0,9.0,32,0.00,,CLR,0.00,VWS V14.01,2013-05-27 23:59:00,
2013-05-27 20:04:00,64.6,34.1,30.01,ESE,107,8.0,9.0,32,0.00,,CLR,0.00,VWS V14.01,2013-05-28 00:04:00,
2013-05-27 20:09:00,64.3,35.4,30.01,ESE,104,6.0,8.0,34,0.00,,CLR,0.00,VWS V14.01,2013-05-28 00:09:00,
2013-05-27 20:14:00,63.8,34.9,30.01,East,97,6.0,7.0,34,0.00,,CLR,0.00,VWS V14.01,2013-05-28 00:14:00,
2013-05-27 20:19:00,63.2,36.5,30.01,ENE,77,8.0,8.0,37,0.00,,CLR,0.00,VWS V14.01,2013-05-28 00:19:00,
2013-05-27 20:24:00,62.7,37.4,30.01,East,94,6.0,7.0,39,0.00,,CLR,0.00,VWS V14.01,2013-05-28 00:24:00,
2013-05-27 20:29:00,62.3,37.0,30.01,East,88,7.0,7.0,39,0.00,,CLR,0.00,VWS V14.01,2013-05-28 00:29:00,
2013-05-27 20:34:00,62.0,37.4,30.01,ESE,111,8.0,8.0,40,0.00,,CLR,0.00,VWS V14.01,2013-05-28 00:34:00,
2013-05-27 20:39:00,61.7,37.2,30.01,East,99,9.0,10.0,40,0.00,,CLR,0.00,VWS V14.01,2013-05-28 00:39:00,
2013-05-27 20:44:00,61.5,36.3,30.02,East,100,6.0,6.0,39,0.00,,CLR,0.00,VWS V14.01,2013-05-28 00:44:00,
2013-05-27 20:49:00,61.3,37.4,30.01,SE,126,4.0,7.0,41,0.00,,CLR,0.00,VWS V14.01,2013-05-28 00:49:00,
2013-05-27 20:54:00,61.1,36.6,30.02,ESE,113,8.0,8.0,40,0.00,,CLR,0.00,VWS V14.01,2013-05-28 00:54:00,
2013-05-27 20:59:00,60.9,35.8,30.02,ESE,120,8.0,9.0,39,0.00,,CLR,0.00,VWS V14.01,2013-05-28 00:59:00,
2013-05-27 21:04:00,60.8,35.7,30.02,ESE,119,6.0,6.0,39,0.00,,CLR,0.00,VWS V14.01,2013-05-28 01:04:00,
2013-05-27 21:09:00,60.6,36.2,30.02,ESE,118,3.0,6.0,40,0.00,,CLR,0.00,VWS V14.01,2013-05-28 01:09:00,
2013-05-27 21:14:00,60.2,36.4,30.01,ESE,113,6.0,7.0,41,0.00,,CLR,0.00,VWS V14.01,2013-05-28 01:14:00,
2013-05-27 21:19:00,59.7,36.6,30.01,East,101,4.0,4.0,42,0.00,,CLR,0.00,VWS V14.01,2013-05-28 01:19:00,
2013-05-27 21:24:00,59.3,36.2,30.01,ESE,113,7.0,8.0,42,0.00,,CLR,0.00,VWS V14.01,2013-05-28 01:24:00,
2013-05-27 21:30:00,59.2,36.7,30.01,ESE,107,3.0,6.0,43,0.00,,CLR,0.00,VWS V14.01,2013-05-28 01:30:00,
2013-05-27 21:35:00,58.8,36.4,30.01,ESE,118,6.0,8.0,43,0.00,,CLR,0.00,VWS V14.01,2013-05-28 01:35:00,
2013-05-27 21:40:00,58.7,36.9,30.01,ESE,121,7.0,8.0,44,0.00,,CLR,0.00,VWS V14.01,2013-05-28 01:40:00,
2013-05-27 21:45:00,58.4,37.2,30.01,East,98,7.0,9.0,45,0.00,,CLR,0.00,VWS V14.01,2013-05-28 01:45:00,
2013-05-27 21:50:00,58.2,37.0,30.01,SE,134,12.0,12.0,45,0.00,,CLR,0.00,VWS V14.01,2013-05-28 01:50:00,
2013-05-27 21:55:00,58.3,36.5,30.01,ESE,113,8.0,8.0,44,0.00,,CLR,0.00,VWS V14.01,2013-05-28 01:55:00,
2013-05-27 22:00:00,58.3,36.5,30.01,ESE,115,8.0,12.0,44,0.00,,CLR,0.00,VWS V14.01,2013-05-28 02:00:00,
2013-05-27 22:05:00,58.3,36.5,30.01,SE,134,10.0,10.0,44,0.00,,CLR,0.00,VWS V14.01,2013-05-28 02:05:00,
2013-05-27 22:10:00,58.2,35.8,30.01,SE,127,8.0,8.0,43,0.00,,CLR,0.00,VWS V14.01,2013-05-28 02:10:00,
2013-05-27 22:15:00,58.0,35.7,30.01,ESE,118,6.0,8.0,43,0.00,,CLR,0.00,VWS V14.01,2013-05-28 02:15:00,
2013-05-27 22:20:00,57.9,35.6,30.02,SE,142,8.0,9.0,43,0.00,,CLR,0.00,VWS V14.01,2013-05-28 02:20:00,
2013-05-27 22:25:00,57.7,36.0,30.02,SE,133,7.0,8.0,44,0.00,,CLR,0.00,VWS V14.01,2013-05-28 02:25:00,
2013-05-27 22:30:00,57.6,35.3,30.01,ESE,107,8.0,8.0,43,0.00,,CLR,0.00,VWS V14.01,2013-05-28 02:30:00,
2013-05-27 22:35:00,57.4,35.7,30.01,ESE,113,6.0,7.0,44,0.00,,CLR,0.00,VWS V14.01,2013-05-28 02:35:00,
2013-05-27 22:40:00,57.3,35.6,30.01,SE,145,5.0,8.0,44,0.00,,CLR,0.00,VWS V14.01,2013-05-28 02:40:00,
2013-05-27 22:45:00,57.2,35.5,30.01,ESE,121,5.0,7.0,44,0.00,,CLR,0.00,VWS V14.01,2013-05-28 02:45:00,
2013-05-27 22:50:00,56.9,36.3,30.01,ESE,121,4.0,7.0,46,0.00,,CLR,0.00,VWS V14.01,2013-05-28 02:50:00,
2013-05-27 22:55:00,56.7,36.2,30.01,SSE,152,6.0,7.0,46,0.00,,CLR,0.00,VWS V14.01,2013-05-28 02:55:00,
2013-05-27 23:01:00,56.5,36.0,30.01,ESE,121,7.0,8.0,46,0.00,,CLR,0.00,VWS V14.01,2013-05-28 03:01:00,
2013-05-27 23:06:00,56.4,35.9,30.02,SE,144,4.0,7.0,46,0.00,,CLR,0.00,VWS V14.01,2013-05-28 03:06:00,
2013-05-27 23:11:00,56.3,35.8,30.01,SSE,147,4.0,5.0,46,0.00,,CLR,0.00,VWS V14.01,2013-05-28 03:11:00,
2013-05-27 23:16:00,56.3,35.8,30.01,ESE,109,9.0,9.0,46,0.00,,CLR,0.00,VWS V14.01,2013-05-28 03:16:00,
2013-05-27 23:21:00,56.2,35.7,30.01,ESE,122,4.0,4.0,46,0.00,,CLR,0.00,VWS V14.01,2013-05-28 03:21:00,
2013-05-27 23:26:00,56.1,35.6,30.01,ESE,107,4.0,4.0,46,0.00,,CLR,0.00,VWS V14.01,2013-05-28 03:26:00,
2013-05-27 23:31:00,56.0,36.1,30.01,SE,132,4.0,5.0,47,0.00,,CLR,0.00,VWS V14.01,2013-05-28 03:31:00,
2013-05-27 23:36:00,55.9,36.0,30.01,SE,141,5.0,5.0,47,0.00,,CLR,0.00,VWS V14.01,2013-05-28 03:36:00,
2013-05-27 23:41:00,55.7,36.3,30.01,SE,132,3.0,3.0,48,0.00,,CLR,0.00,VWS V14.01,2013-05-28 03:41:00,
2013-05-27 23:46:00,55.5,36.2,30.01,SE,144,4.0,4.0,48,0.00,,CLR,0.00,VWS V14.01,2013-05-28 03:46:00,
2013-05-27 23:51:00,55.5,36.7,30.01,SE,125,9.0,9.0,49,0.00,,CLR,0.00,VWS V14.01,2013-05-28 03:51:00,
2013-05-27 23:56:00,55.4,36.6,30.00,SE,124,8.0,8.0,49,0.00,,CLR,0.00,VWS V14.01,2013-05-28 03:56:00,